createdAt,value
2023-04-19T00:00:39.882Z,21.13
2023-04-19T00:03:08.603Z,21.77
2023-04-19T00:05:38.366Z,19.87
2023-04-19T00:08:07.005Z,20.10
2023-04-19T00:10:35.907Z,20.33
2023-04-19T00:13:04.115Z,20.87
2023-04-19T00:15:35.156Z,20.67
2023-04-19T00:18:03.636Z,20.50
2023-04-19T00:20:31.644Z,20.40
2023-04-19T00:22:59.667Z,21.10
2023-04-19T00:25:28.495Z,20.70
2023-04-19T00:27:56.467Z,20.40
2023-04-19T00:30:24.457Z,20.10
2023-04-19T00:32:54.002Z,21.47
2023-04-19T00:35:22.293Z,19.80
2023-04-19T00:37:50.312Z,18.87
2023-04-19T00:40:18.297Z,20.77
2023-04-19T00:42:46.284Z,20.60
2023-04-19T00:45:14.330Z,20.20
2023-04-19T00:47:43.022Z,21.13
2023-04-19T00:50:14.537Z,20.17
2023-04-19T00:52:42.791Z,19.60
2023-04-19T00:55:11.258Z,19.60
2023-04-19T00:57:39.661Z,19.47
2023-04-19T01:00:09.796Z,19.77
2023-04-19T01:02:37.911Z,19.20
2023-04-19T01:05:06.559Z,19.07
2023-04-19T01:07:36.206Z,19.40
2023-04-19T01:10:04.244Z,18.87
2023-04-19T01:12:32.220Z,18.90
2023-04-19T01:15:00.160Z,17.83
2023-04-19T01:17:30.271Z,20.33
2023-04-19T01:20:01.846Z,18.70
2023-04-19T01:22:32.044Z,19.47
2023-04-19T01:25:00.089Z,18.13
2023-04-19T01:27:28.148Z,18.70
2023-04-19T01:29:56.142Z,18.43
2023-04-19T01:32:26.305Z,18.53
2023-04-19T01:34:54.496Z,18.47
2023-04-19T01:37:22.455Z,18.73
2023-04-19T01:39:51.801Z,18.53
2023-04-19T01:42:19.893Z,18.27
2023-04-19T01:44:47.890Z,17.77
2023-04-19T01:47:15.912Z,18.80
2023-04-19T01:49:43.883Z,18.53
2023-04-19T01:52:11.822Z,17.93
2023-04-19T01:54:39.825Z,17.40
2023-04-19T01:57:09.186Z,17.73
2023-04-19T01:59:37.184Z,18.23
2023-04-19T02:02:08.355Z,17.03
2023-04-19T02:04:37.469Z,18.63
2023-04-19T02:07:05.422Z,18.17
2023-04-19T02:09:37.296Z,18.57
2023-04-19T02:12:05.969Z,19.00
2023-04-19T02:14:36.210Z,19.23
2023-04-19T02:17:04.278Z,18.33
2023-04-19T02:19:32.339Z,18.93
2023-04-19T02:22:00.342Z,19.70
2023-04-19T02:24:28.622Z,18.17
2023-04-19T02:26:56.572Z,18.53
2023-04-19T02:29:24.566Z,18.20
2023-04-19T02:31:54.017Z,18.20
2023-04-19T02:34:22.044Z,17.63
2023-04-19T02:36:50.029Z,17.43
2023-04-19T02:39:18.061Z,17.43
2023-04-19T02:41:46.036Z,16.83
2023-04-19T02:44:14.344Z,17.80
2023-04-19T02:46:42.552Z,17.07
2023-04-19T02:49:11.926Z,17.10
2023-04-19T02:51:39.905Z,17.73
2023-04-19T02:54:07.864Z,18.80
2023-04-19T02:56:35.855Z,16.67
2023-04-19T02:59:04.036Z,16.40
2023-04-19T03:01:32.421Z,17.33
2023-04-19T03:04:00.588Z,17.80
2023-04-19T03:06:30.041Z,17.20
2023-04-19T03:08:58.012Z,17.57
2023-04-19T03:11:26.075Z,17.40
2023-04-19T03:13:54.086Z,17.23
2023-04-19T03:16:22.166Z,16.47
2023-04-19T03:18:50.188Z,17.13
2023-04-19T03:21:18.190Z,18.00
2023-04-19T03:23:47.504Z,17.93
2023-04-19T03:26:15.469Z,17.43
2023-04-19T03:28:43.417Z,17.60
2023-04-19T03:31:11.417Z,18.10
2023-04-19T03:33:39.395Z,16.67
2023-04-19T03:36:08.088Z,18.17
2023-04-19T03:38:36.199Z,16.80
2023-04-19T03:41:05.657Z,17.23
2023-04-19T03:43:33.597Z,18.70
2023-04-19T03:46:01.623Z,17.13
2023-04-19T03:48:29.595Z,18.60
2023-04-19T03:50:57.578Z,18.70
2023-04-19T03:53:25.603Z,17.43
2023-04-19T03:55:53.566Z,19.20
2023-04-19T03:58:23.870Z,19.50
2023-04-19T04:00:52.080Z,19.10
2023-04-19T04:03:20.295Z,18.43
2023-04-19T04:05:49.227Z,19.70
2023-04-19T04:08:17.309Z,19.63
2023-04-19T04:10:45.310Z,18.10
2023-04-19T04:13:13.330Z,18.67
2023-04-19T04:15:42.677Z,18.80
2023-04-19T04:18:10.931Z,18.63
2023-04-19T04:20:38.890Z,18.27
2023-04-19T04:23:07.578Z,16.93
2023-04-19T04:25:37.693Z,17.77
2023-04-19T04:28:05.865Z,17.97
2023-04-19T04:30:35.017Z,17.47
2023-04-19T04:33:04.518Z,20.43
2023-04-19T04:35:32.581Z,18.77
2023-04-19T04:38:01.954Z,20.50
2023-04-19T04:40:32.453Z,23.07
2023-04-19T04:43:04.397Z,25.30
2023-04-19T04:45:32.719Z,24.60
2023-04-19T04:48:00.908Z,19.90
2023-04-19T04:50:30.306Z,17.30
2023-04-19T04:52:58.272Z,17.30
2023-04-19T04:55:26.258Z,16.73
2023-04-19T04:57:54.225Z,14.63
2023-04-19T05:00:22.796Z,14.17
2023-04-19T05:02:50.871Z,14.27
2023-04-19T05:05:18.975Z,14.40
2023-04-19T05:07:48.258Z,14.40
2023-04-19T05:10:16.261Z,14.70
2023-04-19T05:12:44.291Z,15.13
2023-04-19T05:15:12.954Z,13.33
2023-04-19T05:17:43.122Z,14.03
2023-04-19T05:20:12.142Z,14.37
2023-04-19T05:22:40.152Z,15.00
2023-04-19T05:25:11.702Z,15.40
2023-04-19T05:27:39.675Z,14.87
2023-04-19T05:30:08.647Z,14.87
2023-04-19T05:32:37.087Z,16.47
2023-04-19T05:35:05.327Z,14.37
2023-04-19T05:37:33.311Z,15.77
2023-04-19T05:40:01.299Z,14.87
2023-04-19T05:42:30.983Z,14.27
2023-04-19T05:44:59.109Z,13.83
2023-04-19T05:47:27.184Z,13.37
2023-04-19T05:49:55.409Z,12.50
2023-04-19T05:52:23.424Z,13.20
2023-04-19T05:54:51.440Z,13.27
2023-04-19T05:57:19.419Z,12.07
2023-04-19T05:59:48.850Z,11.17
2023-04-19T06:02:17.277Z,13.00
2023-04-19T06:04:45.943Z,12.00
2023-04-19T06:07:30.086Z,10.13
2023-04-19T06:10:00.715Z,9.40
2023-04-19T06:12:29.024Z,10.10
2023-04-19T06:14:58.344Z,8.87
2023-04-19T06:17:26.326Z,8.93
2023-04-19T06:19:54.456Z,8.43
2023-04-19T06:22:23.055Z,7.63
2023-04-19T06:24:51.146Z,7.67
2023-04-19T06:27:19.303Z,7.63
2023-04-19T06:29:48.056Z,7.70
2023-04-19T06:32:18.173Z,7.30
2023-04-19T06:34:46.143Z,7.17
2023-04-19T06:37:14.116Z,7.57
2023-04-19T06:39:42.188Z,7.30
2023-04-19T06:42:10.462Z,7.27
2023-04-19T06:44:38.450Z,7.33
2023-04-19T06:47:06.874Z,8.30
2023-04-19T06:49:36.319Z,8.20
2023-04-19T06:52:04.486Z,8.47
2023-04-19T06:54:32.497Z,7.90
2023-04-19T06:57:00.893Z,7.90
2023-04-19T06:59:29.024Z,8.27
2023-04-19T07:01:58.552Z,7.93
2023-04-19T07:04:27.617Z,8.50
2023-04-19T07:06:57.270Z,9.37
2023-04-19T07:09:25.368Z,12.30
2023-04-19T07:11:53.433Z,12.63
2023-04-19T07:14:21.438Z,12.87
2023-04-19T07:16:50.787Z,11.70
2023-04-19T07:19:20.723Z,12.43
2023-04-19T07:21:48.663Z,10.00
2023-04-19T07:24:18.263Z,12.70
2023-04-19T07:26:46.573Z,10.57
2023-04-19T07:29:14.549Z,12.07
2023-04-19T07:31:42.634Z,12.57
2023-04-19T07:34:10.755Z,10.73
2023-04-19T07:36:39.087Z,10.47
2023-04-19T07:39:07.163Z,12.03
2023-04-19T07:41:36.758Z,12.30
2023-04-19T07:44:04.810Z,12.10
2023-04-19T07:46:32.891Z,12.80
2023-04-19T07:49:00.866Z,13.03
2023-04-19T07:51:28.988Z,13.80
2023-04-19T07:53:57.026Z,14.13
2023-04-19T07:56:26.469Z,13.60
2023-04-19T07:59:04.787Z,13.03
2023-04-19T08:01:36.999Z,13.57
2023-04-19T08:04:05.411Z,13.60
2023-04-19T08:06:33.815Z,12.17
2023-04-19T08:09:01.853Z,10.40
2023-04-19T08:11:29.903Z,10.17
2023-04-19T08:14:09.239Z,11.17
2023-04-19T08:17:19.363Z,11.10
2023-04-19T08:19:31.026Z,11.17
2023-04-19T08:21:59.028Z,12.13
2023-04-19T08:24:27.253Z,14.00
2023-04-19T08:26:55.200Z,13.60
2023-04-19T08:29:24.686Z,11.77
2023-04-19T08:31:52.758Z,11.73
2023-04-19T08:34:21.109Z,12.20
2023-04-19T08:36:59.898Z,11.53
2023-04-19T08:39:33.585Z,11.70
2023-04-19T08:42:09.224Z,12.00
2023-04-19T08:44:59.070Z,12.47
2023-04-19T08:47:34.331Z,12.97
2023-04-19T08:52:47.749Z,12.07
2023-04-19T08:55:22.824Z,11.63
2023-04-19T08:57:50.876Z,11.43
2023-04-19T09:00:21.842Z,11.17
2023-04-19T09:02:51.399Z,10.53
2023-04-19T09:05:21.094Z,10.37
2023-04-19T09:07:49.288Z,12.43
2023-04-19T09:10:19.371Z,11.73
2023-04-19T09:13:02.086Z,11.33
2023-04-19T09:15:44.550Z,11.60
2023-04-19T09:18:14.155Z,12.60
2023-04-19T09:20:43.953Z,11.87
2023-04-19T09:23:13.555Z,11.03
2023-04-19T09:28:15.983Z,9.47
2023-04-19T09:30:58.160Z,10.80
2023-04-19T09:33:35.601Z,10.43
2023-04-19T09:36:04.083Z,10.63
2023-04-19T09:38:32.105Z,9.57
2023-04-19T09:41:08.362Z,9.67
2023-04-19T09:44:00.833Z,8.47
2023-04-19T09:46:45.661Z,8.40
2023-04-19T09:49:25.037Z,8.73
2023-04-19T09:51:59.215Z,9.40
2023-04-19T09:54:29.945Z,8.97
2023-04-19T09:57:00.191Z,9.70
2023-04-19T09:59:29.382Z,8.77
2023-04-19T10:02:02.206Z,9.40
2023-04-19T10:04:49.894Z,9.20
2023-04-19T10:07:30.310Z,9.23
2023-04-19T10:10:11.831Z,9.20
2023-04-19T10:18:10.708Z,10.57
2023-04-19T10:20:44.349Z,11.47
2023-04-19T10:23:12.887Z,10.30
2023-04-19T10:25:41.105Z,10.10
2023-04-19T10:28:09.152Z,10.67
2023-04-19T10:30:37.109Z,12.17
2023-04-19T10:33:07.020Z,11.63
2023-04-19T10:35:39.630Z,13.17
2023-04-19T10:38:10.463Z,13.83
2023-04-19T10:41:01.340Z,12.70
2023-04-19T10:43:30.421Z,13.60
2023-04-19T10:46:01.860Z,13.47
2023-04-19T10:48:35.132Z,14.07
2023-04-19T10:51:07.254Z,13.83
2023-04-19T10:53:56.018Z,14.03
2023-04-19T10:57:08.564Z,16.50
2023-04-19T10:59:37.301Z,14.43
2023-04-19T11:02:06.697Z,16.10
2023-04-19T11:05:01.727Z,14.90
2023-04-19T11:07:41.713Z,15.73
2023-04-19T11:10:11.755Z,16.10
2023-04-19T11:12:44.358Z,14.87
2023-04-19T11:15:12.428Z,14.83
2023-04-19T11:17:41.805Z,15.77
2023-04-19T11:20:11.742Z,15.97
2023-04-19T11:22:42.929Z,15.67
2023-04-19T11:25:13.122Z,15.90
2023-04-19T11:27:42.862Z,17.53
2023-04-19T11:30:12.622Z,16.57
2023-04-19T11:32:46.917Z,18.37
2023-04-19T11:35:15.869Z,17.30
2023-04-19T11:37:45.254Z,17.73
2023-04-19T11:40:17.189Z,16.80
2023-04-19T11:42:45.892Z,18.73
2023-04-19T11:45:30.404Z,17.50
2023-04-19T11:48:01.159Z,16.67
2023-04-19T11:50:34.315Z,16.27
2023-04-19T11:53:12.566Z,16.77
2023-04-19T11:55:43.047Z,15.93
2023-04-19T11:58:23.705Z,15.40
2023-04-19T12:00:52.176Z,17.63
2023-04-19T12:03:25.806Z,16.87
2023-04-19T12:06:14.824Z,17.27
2023-04-19T12:08:48.700Z,18.30
2023-04-19T12:11:18.857Z,17.10
2023-04-19T12:13:46.881Z,16.83
2023-04-19T12:16:15.390Z,16.83
2023-04-19T12:18:48.955Z,16.20
2023-04-19T12:21:27.559Z,16.00
2023-04-19T12:23:58.259Z,17.00
2023-04-19T12:26:26.986Z,17.17
2023-04-19T12:28:55.223Z,18.90
2023-04-19T12:31:23.271Z,19.10
2023-04-19T12:33:51.651Z,18.10
2023-04-19T12:36:19.925Z,17.60
2023-04-19T12:38:47.949Z,18.40
2023-04-19T12:41:17.274Z,18.67
2023-04-19T12:43:45.262Z,18.27
2023-04-19T12:46:13.345Z,19.30
2023-04-19T12:48:41.322Z,20.30
2023-04-19T12:51:09.827Z,19.33
2023-04-19T12:53:37.798Z,20.07
2023-04-19T12:56:06.063Z,21.77
2023-04-19T12:58:35.683Z,21.47
2023-04-19T13:01:03.714Z,19.17
2023-04-19T13:03:33.286Z,19.70
2023-04-19T13:06:01.370Z,22.10
2023-04-19T13:08:44.214Z,21.47
2023-04-19T13:11:14.682Z,21.33
2023-04-19T13:13:44.026Z,28.13
2023-04-19T13:16:12.042Z,24.27
2023-04-19T13:18:40.065Z,28.83
2023-04-19T13:21:08.624Z,28.20
2023-04-19T13:23:36.958Z,25.60
2023-04-19T13:26:05.369Z,25.73
2023-04-19T13:28:35.942Z,28.00
2023-04-19T13:31:06.612Z,27.33
2023-04-19T13:33:34.680Z,27.13
2023-04-19T13:36:02.671Z,28.07
2023-04-19T13:38:30.782Z,25.40
2023-04-19T13:40:58.869Z,24.17
2023-04-19T13:43:27.005Z,22.67
2023-04-19T13:45:55.516Z,22.07
2023-04-19T13:48:27.460Z,24.53
2023-04-19T13:50:55.960Z,23.83
2023-04-19T13:53:24.369Z,22.50
2023-04-19T13:55:52.470Z,23.30
2023-04-19T13:58:20.656Z,26.67
2023-04-19T14:00:49.175Z,25.10
2023-04-19T14:03:17.591Z,25.47
2023-04-19T14:05:47.179Z,23.83
2023-04-19T14:08:15.134Z,24.70
2023-04-19T14:10:43.189Z,25.63
2023-04-19T14:13:11.279Z,29.43
2023-04-19T14:15:39.288Z,28.97
2023-04-19T14:18:07.440Z,29.27
2023-04-19T14:20:35.994Z,28.63
2023-04-19T14:23:05.337Z,28.67
2023-04-19T14:25:33.330Z,27.80
2023-04-19T14:28:01.315Z,28.23
2023-04-19T14:30:30.674Z,27.30
2023-04-19T14:32:59.268Z,28.70
2023-04-19T14:35:27.342Z,32.30
2023-04-19T14:37:55.329Z,29.67
2023-04-19T14:40:25.035Z,29.57
2023-04-19T14:42:53.337Z,29.47
2023-04-19T14:45:21.547Z,28.50
2023-04-19T14:47:49.556Z,30.87
2023-04-19T14:50:17.855Z,26.03
2023-04-19T14:52:45.858Z,26.20
2023-04-19T14:55:13.996Z,24.40
2023-04-19T14:57:43.319Z,24.57
2023-04-19T15:00:13.781Z,26.47
2023-04-19T15:02:41.853Z,28.10
2023-04-19T15:05:10.843Z,27.67
2023-04-19T15:07:39.649Z,27.07
2023-04-19T15:10:08.841Z,28.67
2023-04-19T15:12:36.829Z,26.77
2023-04-19T15:15:07.012Z,25.13
2023-04-19T15:17:35.131Z,26.40
2023-04-19T15:20:03.188Z,28.53
2023-04-19T15:22:31.611Z,27.57
2023-04-19T15:25:01.285Z,29.13
2023-04-19T15:27:29.425Z,28.40
2023-04-19T15:29:57.450Z,27.07
2023-04-19T15:32:29.053Z,24.03
2023-04-19T15:34:57.080Z,25.13
2023-04-19T15:37:25.046Z,31.33
2023-04-19T15:39:53.053Z,31.07
2023-04-19T15:42:21.007Z,26.70
2023-04-19T15:44:48.964Z,25.47
2023-04-19T15:47:17.332Z,25.67
2023-04-19T15:49:47.612Z,25.90
2023-04-19T15:52:15.654Z,23.50
2023-04-19T15:54:43.733Z,23.87
2023-04-19T15:57:11.796Z,23.83
2023-04-19T15:59:39.788Z,23.90
2023-04-19T16:02:08.342Z,24.50
2023-04-19T16:04:37.219Z,22.97
2023-04-19T16:07:06.830Z,25.67
2023-04-19T16:09:34.811Z,23.90
2023-04-19T16:12:02.795Z,24.40
2023-04-19T16:14:30.750Z,24.87
2023-04-19T16:17:00.835Z,24.93
2023-04-19T16:19:28.837Z,24.40
2023-04-19T16:21:56.892Z,28.90
2023-04-19T16:24:26.278Z,26.00
2023-04-19T16:26:54.265Z,26.37
2023-04-19T16:29:22.232Z,25.80
2023-04-19T16:31:52.093Z,25.87
2023-04-19T16:34:21.276Z,24.87
2023-04-19T16:36:49.380Z,24.13
2023-04-19T16:39:17.545Z,23.87
2023-04-19T16:41:47.050Z,23.97
2023-04-19T16:44:15.152Z,23.17
2023-04-19T16:46:43.753Z,24.90
2023-04-19T16:49:12.027Z,26.03
2023-04-19T16:51:40.048Z,24.73
2023-04-19T16:54:08.084Z,28.30
2023-04-19T16:56:36.068Z,26.30
2023-04-19T16:59:05.434Z,28.10
2023-04-19T17:01:33.480Z,34.27
2023-04-19T17:04:01.602Z,30.77
2023-04-19T17:06:29.831Z,29.47
2023-04-19T17:08:57.761Z,29.50
2023-04-19T17:11:25.710Z,27.83
2023-04-19T17:13:55.320Z,27.43
2023-04-19T17:16:26.198Z,26.97
2023-04-19T17:18:56.367Z,27.23
2023-04-19T17:21:24.386Z,29.10
2023-04-19T17:23:52.431Z,28.63
2023-04-19T17:26:21.036Z,27.43
2023-04-19T17:28:49.046Z,30.17
2023-04-19T17:31:17.116Z,26.90
2023-04-19T17:33:46.436Z,27.50
2023-04-19T17:36:14.586Z,27.33
2023-04-19T17:38:42.568Z,31.07
2023-04-19T17:41:16.040Z,30.23
2023-04-19T17:43:44.057Z,34.53
2023-04-19T17:46:12.347Z,33.53
2023-04-19T17:48:40.377Z,34.53
2023-04-19T17:51:10.130Z,32.40
2023-04-19T17:53:38.067Z,31.43
2023-04-19T17:56:06.243Z,32.50
2023-04-19T17:58:35.722Z,32.10
2023-04-19T18:01:04.382Z,30.07
2023-04-19T18:03:32.708Z,35.97
2023-04-19T18:06:01.034Z,34.03
2023-04-19T18:08:30.367Z,33.67
2023-04-19T18:10:58.333Z,32.53
2023-04-19T18:13:26.659Z,32.97
2023-04-19T18:15:54.701Z,31.63
2023-04-19T18:18:23.258Z,31.53
2023-04-19T18:20:51.279Z,33.03
2023-04-19T18:23:19.243Z,32.63
2023-04-19T18:25:55.162Z,33.47
2023-04-19T18:28:23.163Z,36.47
2023-04-19T18:30:51.466Z,34.57
2023-04-19T18:33:19.476Z,32.77
2023-04-19T18:35:47.622Z,34.03
2023-04-19T18:38:15.589Z,33.17
2023-04-19T18:40:43.729Z,32.23
2023-04-19T18:43:13.049Z,34.87
2023-04-19T18:45:41.058Z,33.93
2023-04-19T18:48:09.456Z,31.37
2023-04-19T18:50:38.331Z,32.50
2023-04-19T18:53:06.304Z,33.37
2023-04-19T18:55:34.318Z,34.13
2023-04-19T18:58:02.301Z,33.30
2023-04-19T19:00:31.617Z,31.07
2023-04-19T19:03:00.530Z,32.13
2023-04-19T19:05:30.390Z,32.30
2023-04-19T19:07:58.612Z,31.43
2023-04-19T19:10:49.817Z,30.23
2023-04-19T19:13:14.548Z,29.40
2023-04-19T19:15:43.901Z,29.77
2023-04-19T19:18:11.963Z,31.17
2023-04-19T19:20:40.066Z,32.07
2023-04-19T19:23:08.040Z,31.53
2023-04-19T19:25:36.062Z,31.90
2023-04-19T19:28:08.334Z,32.57
2023-04-19T19:30:39.844Z,32.87
2023-04-19T19:33:09.554Z,31.63
2023-04-19T19:38:06.752Z,34.13
2023-04-19T19:40:34.749Z,32.57
2023-04-19T19:43:03.368Z,31.87
2023-04-19T19:45:32.723Z,32.03
2023-04-19T19:48:01.158Z,30.80
2023-04-19T19:53:02.110Z,32.50
2023-04-19T19:55:30.328Z,33.23
2023-04-19T19:58:18.715Z,33.90
2023-04-19T20:00:48.684Z,33.30
2023-04-19T20:03:35.497Z,32.40
2023-04-19T20:08:42.441Z,32.70
2023-04-19T20:11:12.089Z,33.23
2023-04-19T20:13:40.047Z,32.67
2023-04-19T20:16:09.980Z,32.73
2023-04-19T20:18:38.656Z,32.37
2023-04-19T20:21:07.959Z,30.03
2023-04-19T20:23:39.147Z,32.57
2023-04-19T20:26:07.106Z,33.67
2023-04-19T20:28:35.433Z,32.53
2023-04-19T20:31:03.506Z,33.00
2023-04-19T20:33:31.485Z,33.00
2023-04-19T20:36:00.590Z,31.90
2023-04-19T20:38:29.979Z,33.80
2023-04-19T20:40:58.131Z,33.50
2023-04-19T20:43:26.184Z,33.07
2023-04-19T20:45:54.239Z,34.97
2023-04-19T20:48:22.273Z,33.93
2023-04-19T20:50:50.274Z,34.40
2023-04-19T20:53:18.461Z,33.53
2023-04-19T20:55:47.804Z,34.07
2023-04-19T20:58:16.079Z,33.80
2023-04-19T21:00:44.186Z,35.13
2023-04-19T21:03:12.188Z,34.10
2023-04-19T21:05:40.261Z,35.40
2023-04-19T21:08:08.262Z,34.30
2023-04-19T21:10:36.188Z,35.83
2023-04-19T21:13:05.554Z,34.90
2023-04-19T21:15:33.624Z,36.97
2023-04-19T21:18:01.674Z,38.57
2023-04-19T21:20:29.791Z,36.23
2023-04-19T21:22:57.760Z,35.60
2023-04-19T21:25:25.707Z,36.97
2023-04-19T21:27:53.668Z,36.67
2023-04-19T21:30:23.702Z,38.00
2023-04-19T21:32:51.732Z,37.67
2023-04-19T21:35:20.156Z,36.27
2023-04-19T21:37:48.185Z,35.20
2023-04-19T21:40:16.159Z,37.70
2023-04-19T21:42:44.140Z,35.67
2023-04-19T21:45:12.708Z,34.53
2023-04-19T21:47:42.113Z,33.70
2023-04-19T21:50:10.851Z,35.63
2023-04-19T21:52:38.886Z,33.77
2023-04-19T21:55:08.204Z,35.87
2023-04-19T21:57:38.260Z,33.53
2023-04-19T22:00:09.275Z,34.30
2023-04-19T22:02:37.585Z,34.17
2023-04-19T22:05:08.223Z,31.97
2023-04-19T22:07:38.164Z,33.97
2023-04-19T22:10:07.614Z,35.67
2023-04-19T22:12:42.617Z,34.43
2023-04-19T22:15:16.245Z,34.17
2023-04-19T22:17:44.631Z,34.93
2023-04-19T22:20:14.813Z,34.17
2023-04-19T22:22:42.862Z,33.60
2023-04-19T22:25:11.182Z,34.03
2023-04-19T22:27:39.189Z,34.03
2023-04-19T22:30:08.573Z,33.87
2023-04-19T22:32:36.562Z,34.07
2023-04-19T22:35:05.745Z,33.07
2023-04-19T22:37:35.050Z,32.70
2023-04-19T22:40:05.313Z,32.57
2023-04-19T22:42:33.256Z,31.10
2023-04-19T22:45:01.219Z,32.00
2023-04-19T22:47:29.238Z,31.67
2023-04-19T22:49:57.189Z,32.13
2023-04-19T22:52:25.191Z,31.93
2023-04-19T22:54:54.570Z,32.10
2023-04-19T22:57:22.584Z,32.80
2023-04-19T22:59:51.014Z,30.70
2023-04-19T23:02:19.038Z,33.40
2023-04-19T23:04:48.616Z,32.50
2023-04-19T23:07:19.963Z,33.13
2023-04-19T23:09:49.782Z,34.47
2023-04-19T23:12:19.107Z,34.10
2023-04-19T23:14:48.381Z,33.27
2023-04-19T23:17:17.150Z,35.83
2023-04-19T23:19:45.144Z,37.47
2023-04-19T23:22:13.146Z,37.00
2023-04-19T23:24:41.169Z,36.83
2023-04-19T23:27:09.192Z,38.53
2023-04-19T23:29:38.560Z,38.07
2023-04-19T23:32:06.827Z,37.93
2023-04-19T23:34:34.780Z,37.27
2023-04-19T23:37:02.748Z,39.33
2023-04-19T23:39:30.827Z,36.17
2023-04-19T23:41:58.993Z,39.43
2023-04-19T23:44:27.849Z,36.90
2023-04-19T23:46:57.442Z,38.97
2023-04-19T23:49:25.462Z,36.63
2023-04-19T23:51:53.446Z,37.47
2023-04-19T23:54:25.686Z,37.67
2023-04-19T23:56:54.166Z,39.07
2023-04-19T23:59:26.684Z,37.43
